createdAt,value
2022-09-28T00:02:09.475Z,35.87
2022-09-28T00:05:27.173Z,36.07
2022-09-28T00:09:06.329Z,36.26
2022-09-28T00:12:43.744Z,36.37
2022-09-28T00:16:24.174Z,36.42
2022-09-28T00:20:02.868Z,36.72
2022-09-28T00:23:42.040Z,36.65
2022-09-28T00:27:20.474Z,36.61
2022-09-28T00:30:59.869Z,36.78
2022-09-28T00:34:40.545Z,36.67
2022-09-28T00:38:20.016Z,36.58
2022-09-28T00:41:57.224Z,37.05
2022-09-28T00:45:36.185Z,36.65
2022-09-28T00:49:19.003Z,36.60
2022-09-28T00:53:23.996Z,36.66
2022-09-28T00:57:04.014Z,36.76
2022-09-28T01:00:42.966Z,36.89
2022-09-28T01:04:23.522Z,36.90
2022-09-28T01:08:04.756Z,37.19
2022-09-28T01:11:43.462Z,37.00
2022-09-28T01:15:21.792Z,36.98
2022-09-28T01:19:32.595Z,37.28
2022-09-28T01:23:58.094Z,37.45
2022-09-28T01:28:10.326Z,37.06
2022-09-28T01:31:56.857Z,37.09
2022-09-28T01:35:50.765Z,36.51
2022-09-28T01:39:35.847Z,36.85
2022-09-28T01:43:28.101Z,37.38
2022-09-28T01:47:11.047Z,36.98
2022-09-28T01:50:54.129Z,37.23
2022-09-28T01:54:43.566Z,37.00
2022-09-28T01:58:38.301Z,36.93
2022-09-28T02:02:20.080Z,37.04
2022-09-28T02:06:06.328Z,37.20
2022-09-28T02:10:03.836Z,37.34
2022-09-28T02:13:59.334Z,37.04
2022-09-28T02:17:36.537Z,37.27
2022-09-28T02:21:32.732Z,37.55
2022-09-28T02:25:38.764Z,37.46
2022-09-28T02:29:16.405Z,37.47
2022-09-28T02:32:58.410Z,37.17
2022-09-28T02:36:35.938Z,37.57
2022-09-28T02:40:29.084Z,37.61
2022-09-28T02:44:40.109Z,37.73
2022-09-28T02:48:44.143Z,37.55
2022-09-28T02:52:38.319Z,37.70
2022-09-28T02:56:24.351Z,38.06
2022-09-28T03:00:20.230Z,37.96
2022-09-28T03:04:09.535Z,37.81
2022-09-28T03:08:21.307Z,38.03
2022-09-28T03:12:08.405Z,38.14
2022-09-28T03:15:48.510Z,38.13
2022-09-28T03:19:30.879Z,37.89
2022-09-28T03:23:25.039Z,37.90
2022-09-28T03:27:04.168Z,37.89
2022-09-28T03:30:42.062Z,37.77
2022-09-28T03:34:19.401Z,37.72
2022-09-28T03:37:57.556Z,38.11
2022-09-28T03:41:36.214Z,38.14
2022-09-28T03:45:14.581Z,38.46
2022-09-28T03:48:51.513Z,38.41
2022-09-28T03:52:28.588Z,38.32
2022-09-28T03:56:13.490Z,38.48
2022-09-28T03:59:52.183Z,38.39
2022-09-28T04:03:29.956Z,39.09
2022-09-28T04:07:09.366Z,39.30
2022-09-28T04:10:46.832Z,39.32
2022-09-28T04:14:24.118Z,39.61
2022-09-28T04:18:01.266Z,39.87
2022-09-28T04:21:39.274Z,39.81
2022-09-28T04:25:18.044Z,40.03
2022-09-28T04:28:55.191Z,39.98
2022-09-28T04:32:33.565Z,39.93
2022-09-28T04:36:11.282Z,39.87
2022-09-28T04:39:49.288Z,40.36
2022-09-28T04:43:27.375Z,39.99
2022-09-28T04:47:07.174Z,39.92
2022-09-28T04:50:44.070Z,40.12
2022-09-28T04:54:22.753Z,40.23
2022-09-28T04:58:00.109Z,40.08
2022-09-28T05:01:39.720Z,39.92
2022-09-28T05:05:16.967Z,40.08
2022-09-28T05:08:57.716Z,40.13
2022-09-28T05:12:35.523Z,40.29
2022-09-28T05:16:15.632Z,40.28
2022-09-28T05:19:53.716Z,39.85
2022-09-28T05:23:31.886Z,40.07
2022-09-28T05:27:14.458Z,40.29
2022-09-28T05:30:52.279Z,40.15
2022-09-28T05:34:30.053Z,40.22
2022-09-28T05:38:07.736Z,40.17
2022-09-28T05:41:45.819Z,40.45
2022-09-28T05:45:23.930Z,40.28
2022-09-28T05:49:00.808Z,40.46
2022-09-28T05:52:41.431Z,40.46
2022-09-28T05:56:25.237Z,40.31
2022-09-28T06:00:07.966Z,40.18
2022-09-28T06:03:47.363Z,40.33
2022-09-28T06:07:24.689Z,40.46
2022-09-28T06:11:02.945Z,39.66
2022-09-28T06:14:40.960Z,40.22
2022-09-28T06:18:19.458Z,40.38
2022-09-28T06:21:59.378Z,40.40
2022-09-28T06:25:37.157Z,40.59
2022-09-28T06:29:18.675Z,40.30
2022-09-28T06:32:58.481Z,40.40
2022-09-28T06:36:37.348Z,40.30
2022-09-28T06:40:14.980Z,40.30
2022-09-28T06:43:53.052Z,40.38
2022-09-28T06:47:31.966Z,40.26
2022-09-28T06:51:08.908Z,39.76
2022-09-28T06:54:45.841Z,39.55
2022-09-28T06:58:43.359Z,37.86
2022-09-28T07:02:03.376Z,37.96
2022-09-28T07:05:40.092Z,38.35
2022-09-28T07:09:31.613Z,37.41
2022-09-28T07:13:35.020Z,37.81
2022-09-28T07:17:14.183Z,37.91
2022-09-28T07:20:54.674Z,37.71
2022-09-28T07:24:31.849Z,37.65
2022-09-28T07:28:28.953Z,37.16
2022-09-28T07:31:47.179Z,37.18
2022-09-28T07:35:25.252Z,37.11
2022-09-28T07:39:03.606Z,37.00
2022-09-28T07:42:41.971Z,36.59
2022-09-28T07:46:19.543Z,36.21
2022-09-28T07:49:57.758Z,36.27
2022-09-28T07:53:36.369Z,36.09
2022-09-28T07:57:15.507Z,36.22
2022-09-28T08:00:52.957Z,35.75
2022-09-28T08:04:31.328Z,35.59
2022-09-28T08:08:10.479Z,35.27
2022-09-28T08:11:48.681Z,35.05
2022-09-28T08:15:27.053Z,34.52
2022-09-28T08:19:05.666Z,34.05
2022-09-28T08:22:42.828Z,34.14
2022-09-28T08:26:22.012Z,34.07
2022-09-28T08:29:59.247Z,33.94
2022-09-28T08:33:36.736Z,33.78
2022-09-28T08:37:14.215Z,33.46
2022-09-28T08:41:18.457Z,33.01
2022-09-28T08:45:06.490Z,33.19
2022-09-28T08:49:13.539Z,32.83
2022-09-28T08:52:59.823Z,32.73
2022-09-28T08:56:57.292Z,31.96
2022-09-28T09:00:52.879Z,31.94
2022-09-28T09:04:33.973Z,31.38
2022-09-28T09:08:25.464Z,30.81
2022-09-28T09:12:31.219Z,30.64
2022-09-28T09:16:12.337Z,30.86
2022-09-28T09:19:58.844Z,30.37
2022-09-28T09:23:57.446Z,30.21
2022-09-28T09:28:07.001Z,29.61
2022-09-28T09:31:49.148Z,29.24
2022-09-28T09:35:48.510Z,29.12
2022-09-28T09:39:38.788Z,28.82
2022-09-28T09:44:13.537Z,28.80
2022-09-28T09:48:02.665Z,28.43
2022-09-28T09:52:06.458Z,27.84
2022-09-28T09:55:51.697Z,28.24
2022-09-28T09:59:37.941Z,27.63
2022-09-28T10:03:30.459Z,27.50
2022-09-28T10:07:14.853Z,27.04
2022-09-28T10:11:07.550Z,27.40
2022-09-28T10:14:48.710Z,26.84
2022-09-28T10:18:27.401Z,26.70
2022-09-28T10:22:14.164Z,25.70
2022-09-28T10:25:43.490Z,25.76
2022-09-28T10:29:26.790Z,25.74
2022-09-28T10:33:03.998Z,25.78
2022-09-28T10:37:06.988Z,25.90
2022-09-28T10:40:47.595Z,24.37
2022-09-28T10:44:25.447Z,25.17
2022-09-28T10:48:20.837Z,25.23
2022-09-28T10:51:52.598Z,24.95
2022-09-28T10:55:27.088Z,24.52
2022-09-28T10:59:28.700Z,24.79
2022-09-28T11:03:23.459Z,24.78
2022-09-28T11:07:01.936Z,24.50
2022-09-28T11:10:38.793Z,24.55
2022-09-28T11:14:42.696Z,24.33
2022-09-28T11:17:53.855Z,24.59
2022-09-28T11:21:43.466Z,24.22
2022-09-28T11:25:32.018Z,23.51
2022-09-28T11:29:36.781Z,23.92
2022-09-28T11:33:18.987Z,23.27
2022-09-28T11:37:24.072Z,23.30
2022-09-28T11:41:07.737Z,23.09
2022-09-28T11:45:31.825Z,22.48
2022-09-28T11:48:29.109Z,22.71
2022-09-28T11:52:32.594Z,22.70
2022-09-28T11:56:40.409Z,22.57
2022-09-28T12:00:22.179Z,22.62
2022-09-28T12:04:09.524Z,22.17
2022-09-28T12:07:53.982Z,21.91
2022-09-28T12:11:36.561Z,21.24
2022-09-28T12:15:19.607Z,21.34
2022-09-28T12:19:04.615Z,20.89
2022-09-28T12:22:55.705Z,21.02
2022-09-28T12:26:38.982Z,20.78
2022-09-28T12:30:21.365Z,20.45
2022-09-28T12:33:58.313Z,20.28
2022-09-28T12:37:46.318Z,19.95
2022-09-28T12:41:35.173Z,19.37
2022-09-28T12:45:23.005Z,19.72
2022-09-28T12:53:59.788Z,19.26
2022-09-28T12:58:31.057Z,19.31
2022-09-28T13:01:33.339Z,19.50
2022-09-28T13:05:31.597Z,19.52
2022-09-28T13:09:22.658Z,19.42
2022-09-28T13:12:51.576Z,19.41
2022-09-28T13:16:10.600Z,19.48
2022-09-28T13:20:03.025Z,19.44
2022-09-28T13:23:34.019Z,19.42
2022-09-28T13:27:32.122Z,19.43
2022-09-28T13:31:20.306Z,19.01
2022-09-28T13:34:50.638Z,19.47
2022-09-28T13:38:31.079Z,18.98
2022-09-28T13:42:47.249Z,19.30
2022-09-28T13:45:59.399Z,19.18
2022-09-28T13:49:57.333Z,19.25
2022-09-28T13:54:12.735Z,19.36
2022-09-28T13:57:40.054Z,19.41
2022-09-28T14:01:25.477Z,19.49
2022-09-28T14:05:21.880Z,19.50
2022-09-28T14:09:07.462Z,19.81
2022-09-28T14:12:46.720Z,19.62
2022-09-28T14:16:26.492Z,19.19
2022-09-28T14:20:16.955Z,19.36
2022-09-28T14:24:24.102Z,18.96
2022-09-28T14:27:53.463Z,19.28
2022-09-28T14:31:28.649Z,19.13
2022-09-28T14:35:18.786Z,19.48
2022-09-28T14:38:56.665Z,19.59
2022-09-28T14:42:34.127Z,19.54
2022-09-28T14:46:13.986Z,19.76
2022-09-28T14:50:01.739Z,19.93
2022-09-28T14:53:50.081Z,19.84
2022-09-28T14:57:29.632Z,19.56
2022-09-28T15:01:02.504Z,19.68
2022-09-28T15:04:51.890Z,19.47
2022-09-28T15:08:21.214Z,19.80
2022-09-28T15:12:13.009Z,19.83
2022-09-28T15:16:04.609Z,19.85
2022-09-28T15:20:17.700Z,19.75
2022-09-28T15:23:40.389Z,19.91
2022-09-28T15:37:42.561Z,18.96
2022-09-28T15:40:38.134Z,18.50
2022-09-28T15:44:37.813Z,25.92
2022-09-28T15:48:48.703Z,30.81
2022-09-28T15:52:30.719Z,32.45
2022-09-28T15:56:12.506Z,34.10
2022-09-28T16:00:21.095Z,37.65
2022-09-28T16:03:29.880Z,38.54
2022-09-28T16:07:13.104Z,39.21
2022-09-28T16:11:15.531Z,40.11
2022-09-28T16:14:55.961Z,42.77
2022-09-28T16:18:35.209Z,44.33
2022-09-28T16:22:23.442Z,45.16
2022-09-28T16:26:06.007Z,46.11
2022-09-28T16:30:04.418Z,46.68
2022-09-28T16:33:30.608Z,48.21
2022-09-28T16:37:31.459Z,49.31
2022-09-28T16:41:09.600Z,49.82
2022-09-28T16:44:47.727Z,48.84
2022-09-28T16:48:30.649Z,49.87
2022-09-28T16:52:12.317Z,49.45
2022-09-28T16:55:53.481Z,50.05
2022-09-28T16:59:26.208Z,51.17
2022-09-28T17:03:14.363Z,52.06
2022-09-28T17:06:41.197Z,53.30
2022-09-28T17:10:27.884Z,54.51
2022-09-28T17:14:05.637Z,53.84
2022-09-28T17:17:42.642Z,52.68
2022-09-28T17:21:21.153Z,52.41
2022-09-28T17:25:00.555Z,51.95
2022-09-28T17:28:37.964Z,51.02
2022-09-28T17:32:19.208Z,49.95
2022-09-28T17:36:03.164Z,48.84
2022-09-28T17:39:42.479Z,48.08
2022-09-28T17:43:19.984Z,47.20
2022-09-28T17:47:02.135Z,46.88
2022-09-28T17:50:44.347Z,46.71
2022-09-28T17:54:23.439Z,46.29
2022-09-28T17:58:02.235Z,45.92
2022-09-28T18:02:02.012Z,45.61
2022-09-28T18:09:34.978Z,45.43
2022-09-28T18:13:14.645Z,45.17
2022-09-28T18:16:52.763Z,44.30
2022-09-28T18:20:31.228Z,44.07
2022-09-28T18:24:08.385Z,43.20
2022-09-28T18:27:46.264Z,42.31
2022-09-28T18:31:24.233Z,41.92
2022-09-28T18:35:01.613Z,41.12
2022-09-28T18:38:39.374Z,40.40
2022-09-28T18:42:17.219Z,40.70
2022-09-28T18:45:54.953Z,40.60
2022-09-28T18:49:31.927Z,40.38
2022-09-28T18:53:11.340Z,40.07
2022-09-28T18:56:49.104Z,39.35
2022-09-28T19:00:46.818Z,39.17
2022-09-28T19:04:05.702Z,38.98
2022-09-28T19:07:43.837Z,38.42
2022-09-28T19:11:22.403Z,37.76
2022-09-28T19:15:09.723Z,37.59
2022-09-28T19:18:47.757Z,37.60
2022-09-28T19:22:24.500Z,38.09
2022-09-28T19:26:03.104Z,38.02
2022-09-28T19:29:41.418Z,37.62
2022-09-28T19:33:18.671Z,37.92
2022-09-28T19:36:55.403Z,38.28
2022-09-28T19:40:36.524Z,38.21
2022-09-28T19:44:16.375Z,38.25
2022-09-28T19:47:58.682Z,38.48
2022-09-28T19:51:38.782Z,38.32
2022-09-28T19:55:21.571Z,38.01
2022-09-28T19:59:03.752Z,37.57
2022-09-28T20:02:42.312Z,37.54
2022-09-28T20:06:19.205Z,37.66
2022-09-28T20:09:56.357Z,37.46
2022-09-28T20:13:36.883Z,37.54
2022-09-28T20:17:16.350Z,37.24
2022-09-28T20:21:05.147Z,37.46
2022-09-28T20:24:41.804Z,37.34
2022-09-28T20:28:19.368Z,37.62
2022-09-28T20:31:58.279Z,37.50
2022-09-28T20:35:35.101Z,37.59
2022-09-28T20:39:13.890Z,37.37
2022-09-28T20:42:51.856Z,37.40
2022-09-28T20:46:30.115Z,37.81
2022-09-28T20:50:07.971Z,37.74
2022-09-28T20:53:54.325Z,37.90
2022-09-28T20:57:31.724Z,38.09
2022-09-28T21:01:17.546Z,38.26
2022-09-28T21:04:54.411Z,38.14
2022-09-28T21:08:31.664Z,38.34
2022-09-28T21:12:10.170Z,38.65
2022-09-28T21:15:48.966Z,38.62
2022-09-28T21:19:26.507Z,38.38
2022-09-28T21:23:03.519Z,38.49
2022-09-28T21:26:41.307Z,38.38
2022-09-28T21:30:19.462Z,38.22
2022-09-28T21:34:00.319Z,38.46
2022-09-28T21:37:34.402Z,38.52
2022-09-28T21:41:11.634Z,38.60
2022-09-28T21:44:49.268Z,38.49
2022-09-28T21:48:27.694Z,38.52
2022-09-28T21:52:06.482Z,38.41
2022-09-28T21:55:43.837Z,38.38
2022-09-28T21:59:21.710Z,38.32
2022-09-28T22:02:59.948Z,38.36
2022-09-28T22:06:37.418Z,38.41
2022-09-28T22:10:15.408Z,38.52
2022-09-28T22:13:55.529Z,38.51
2022-09-28T22:17:34.938Z,38.52
2022-09-28T22:21:15.798Z,38.86
2022-09-28T22:24:54.456Z,38.87
2022-09-28T22:28:31.795Z,38.80
2022-09-28T22:32:09.577Z,39.23
2022-09-28T22:35:49.508Z,39.19
2022-09-28T22:39:27.651Z,39.22
2022-09-28T22:43:04.553Z,39.27
2022-09-28T22:46:42.306Z,39.58
2022-09-28T22:50:20.282Z,39.38
2022-09-28T22:53:58.606Z,39.33
2022-09-28T22:57:36.535Z,39.22
2022-09-28T23:01:23.177Z,39.31
2022-09-28T23:05:01.037Z,38.95
2022-09-28T23:08:38.781Z,39.09
2022-09-28T23:12:16.153Z,38.97
2022-09-28T23:16:03.183Z,38.98
2022-09-28T23:19:41.979Z,39.21
2022-09-28T23:23:19.868Z,38.89
2022-09-28T23:26:58.177Z,38.94
2022-09-28T23:30:36.437Z,38.40
2022-09-28T23:34:14.026Z,38.30
2022-09-28T23:37:51.238Z,38.44
2022-09-28T23:41:29.613Z,38.27
2022-09-28T23:45:08.607Z,38.14
2022-09-28T23:48:46.517Z,38.35
2022-09-28T23:52:25.516Z,38.39
2022-09-28T23:56:02.420Z,38.45
2022-09-28T23:59:39.801Z,38.24
